sensor_id;sensor_type;location;lat;lon;timestamp;pressure;altitude;pressure_sealevel;temperature;humidity
19795;BME280;10057;59.402;17.866;2022-08-25T00:00:11;102420.25;;;15.38;62.98
19795;BME280;10057;59.402;17.866;2022-08-25T00:02:40;102428.56;;;15.29;63.37
19795;BME280;10057;59.402;17.866;2022-08-25T00:05:23;102420.78;;;15.22;63.33
19795;BME280;10057;59.402;17.866;2022-08-25T00:08:00;102420.00;;;15.16;63.55
19795;BME280;10057;59.402;17.866;2022-08-25T00:10:28;102419.06;;;15.19;63.63
19795;BME280;10057;59.402;17.866;2022-08-25T00:12:55;102418.00;;;15.25;63.33
19795;BME280;10057;59.402;17.866;2022-08-25T00:15:22;102416.91;;;15.30;63.18
19795;BME280;10057;59.402;17.866;2022-08-25T00:17:49;102425.00;;;15.29;63.34
19795;BME280;10057;59.402;17.866;2022-08-25T00:20:20;102418.81;;;15.27;63.15
19795;BME280;10057;59.402;17.866;2022-08-25T00:22:48;102424.16;;;15.27;63.02
19795;BME280;10057;59.402;17.866;2022-08-25T00:25:15;102424.25;;;15.24;63.31
19795;BME280;10057;59.402;17.866;2022-08-25T00:27:42;102425.22;;;15.21;63.27
19795;BME280;10057;59.402;17.866;2022-08-25T00:30:12;102424.50;;;15.16;63.19
19795;BME280;10057;59.402;17.866;2022-08-25T00:32:41;102422.94;;;15.09;63.36
19795;BME280;10057;59.402;17.866;2022-08-25T00:35:16;102428.53;;;15.00;63.47
19795;BME280;10057;59.402;17.866;2022-08-25T00:37:43;102427.75;;;14.96;63.54
19795;BME280;10057;59.402;17.866;2022-08-25T00:40:10;102426.09;;;14.92;63.58
19795;BME280;10057;59.402;17.866;2022-08-25T00:42:37;102427.91;;;14.90;63.76
19795;BME280;10057;59.402;17.866;2022-08-25T00:45:07;102422.56;;;14.90;63.80
19795;BME280;10057;59.402;17.866;2022-08-25T00:47:35;102424.34;;;14.91;63.68
19795;BME280;10057;59.402;17.866;2022-08-25T00:50:04;102425.31;;;14.87;63.84
19795;BME280;10057;59.402;17.866;2022-08-25T00:52:37;102433.41;;;14.85;64.02
19795;BME280;10057;59.402;17.866;2022-08-25T00:55:24;102430.66;;;14.87;63.91
19795;BME280;10057;59.402;17.866;2022-08-25T00:57:57;102429.00;;;14.83;64.10
19795;BME280;10057;59.402;17.866;2022-08-25T01:00:30;102429.09;;;14.80;64.30
19795;BME280;10057;59.402;17.866;2022-08-25T01:02:58;102431.75;;;14.80;64.22
19795;BME280;10057;59.402;17.866;2022-08-25T01:05:26;102426.63;;;14.74;64.29
19795;BME280;10057;59.402;17.866;2022-08-25T01:07:55;102426.00;;;14.64;64.48
19795;BME280;10057;59.402;17.866;2022-08-25T01:10:25;102422.56;;;14.59;64.72
19795;BME280;10057;59.402;17.866;2022-08-25T01:12:57;102425.38;;;14.54;64.88
19795;BME280;10057;59.402;17.866;2022-08-25T01:15:25;102418.34;;;14.50;64.81
19795;BME280;10057;59.402;17.866;2022-08-25T01:17:54;102429.91;;;14.49;64.93
19795;BME280;10057;59.402;17.866;2022-08-25T01:20:26;102427.22;;;14.49;64.89
19795;BME280;10057;59.402;17.866;2022-08-25T01:22:55;102436.13;;;14.51;64.79
19795;BME280;10057;59.402;17.866;2022-08-25T01:25:50;102439.78;;;14.45;64.79
19795;BME280;10057;59.402;17.866;2022-08-25T01:28:19;102434.81;;;14.32;65.10
19795;BME280;10057;59.402;17.866;2022-08-25T01:30:46;102430.59;;;14.23;65.11
19795;BME280;10057;59.402;17.866;2022-08-25T01:33:15;102429.75;;;14.22;65.17
19795;BME280;10057;59.402;17.866;2022-08-25T01:35:43;102429.69;;;14.24;65.44
19795;BME280;10057;59.402;17.866;2022-08-25T01:38:10;102426.28;;;14.17;65.52
19795;BME280;10057;59.402;17.866;2022-08-25T01:40:38;102421.91;;;14.15;65.50
19795;BME280;10057;59.402;17.866;2022-08-25T01:45:43;102428.03;;;14.18;65.27
19795;BME280;10057;59.402;17.866;2022-08-25T01:48:11;102430.75;;;14.17;65.53
19795;BME280;10057;59.402;17.866;2022-08-25T01:50:39;102431.63;;;14.17;65.57
19795;BME280;10057;59.402;17.866;2022-08-25T01:53:17;102430.72;;;14.18;65.41
19795;BME280;10057;59.402;17.866;2022-08-25T01:55:44;102436.94;;;14.19;65.42
19795;BME280;10057;59.402;17.866;2022-08-25T01:58:44;102431.50;;;14.22;65.53
19795;BME280;10057;59.402;17.866;2022-08-25T02:01:18;102434.16;;;14.22;65.48
19795;BME280;10057;59.402;17.866;2022-08-25T02:03:47;102437.69;;;14.24;65.36
19795;BME280;10057;59.402;17.866;2022-08-25T02:06:20;102437.75;;;14.22;65.56
19795;BME280;10057;59.402;17.866;2022-08-25T02:08:57;102431.63;;;14.17;65.17
19795;BME280;10057;59.402;17.866;2022-08-25T02:11:24;102436.25;;;14.11;65.44
19795;BME280;10057;59.402;17.866;2022-08-25T02:13:51;102439.03;;;14.06;65.82
19795;BME280;10057;59.402;17.866;2022-08-25T02:16:30;102428.44;;;14.03;65.83
19795;BME280;10057;59.402;17.866;2022-08-25T02:18:59;102425.78;;;14.03;65.63
19795;BME280;10057;59.402;17.866;2022-08-25T02:21:26;102433.78;;;14.03;65.71
19795;BME280;10057;59.402;17.866;2022-08-25T02:23:53;102427.56;;;14.03;65.54
19795;BME280;10057;59.402;17.866;2022-08-25T02:26:21;102425.09;;;13.95;66.02
19795;BME280;10057;59.402;17.866;2022-08-25T02:28:49;102419.97;;;13.86;66.35
19795;BME280;10057;59.402;17.866;2022-08-25T02:31:18;102420.91;;;13.83;66.60
19795;BME280;10057;59.402;17.866;2022-08-25T02:33:45;102423.72;;;13.79;66.60
19795;BME280;10057;59.402;17.866;2022-08-25T02:36:12;102430.03;;;13.74;66.46
19795;BME280;10057;59.402;17.866;2022-08-25T02:38:39;102427.38;;;13.73;66.65
19795;BME280;10057;59.402;17.866;2022-08-25T02:41:17;102423.78;;;13.75;66.59
19795;BME280;10057;59.402;17.866;2022-08-25T02:43:46;102432.72;;;13.74;66.70
19795;BME280;10057;59.402;17.866;2022-08-25T02:46:15;102428.25;;;13.75;66.69
19795;BME280;10057;59.402;17.866;2022-08-25T02:48:42;102432.59;;;13.78;66.59
19795;BME280;10057;59.402;17.866;2022-08-25T02:51:10;102431.72;;;13.79;66.77
19795;BME280;10057;59.402;17.866;2022-08-25T02:53:38;102434.38;;;13.79;66.95
19795;BME280;10057;59.402;17.866;2022-08-25T02:56:07;102431.72;;;13.77;66.71
19795;BME280;10057;59.402;17.866;2022-08-25T02:58:37;102433.56;;;13.75;67.09
19795;BME280;10057;59.402;17.866;2022-08-25T03:01:05;102425.59;;;13.73;67.06
19795;BME280;10057;59.402;17.866;2022-08-25T03:03:33;102431.78;;;13.75;66.74
19795;BME280;10057;59.402;17.866;2022-08-25T03:06:08;102431.72;;;13.79;67.10
19795;BME280;10057;59.402;17.866;2022-08-25T03:08:36;102434.38;;;13.79;66.96
19795;BME280;10057;59.402;17.866;2022-08-25T03:11:04;102435.38;;;13.74;66.98
19795;BME280;10057;59.402;17.866;2022-08-25T03:13:31;102432.03;;;13.65;67.28
19795;BME280;10057;59.402;17.866;2022-08-25T03:15:58;102432.28;;;13.54;67.37
19795;BME280;10057;59.402;17.866;2022-08-25T03:18:26;102430.56;;;13.50;67.89
19795;BME280;10057;59.402;17.866;2022-08-25T03:20:53;102432.44;;;13.46;67.75
19795;BME280;10057;59.402;17.866;2022-08-25T03:23:20;102433.44;;;13.42;68.08
19795;BME280;10057;59.402;17.866;2022-08-25T03:25:47;102428.06;;;13.44;67.68
19795;BME280;10057;59.402;17.866;2022-08-25T03:28:32;102431.50;;;13.49;67.61
19795;BME280;10057;59.402;17.866;2022-08-25T03:31:00;102432.38;;;13.49;67.54
19795;BME280;10057;59.402;17.866;2022-08-25T03:33:28;102431.69;;;13.41;67.92
19795;BME280;10057;59.402;17.866;2022-08-25T03:35:56;102424.72;;;13.34;68.07
19795;BME280;10057;59.402;17.866;2022-08-25T03:38:24;102431.75;;;13.38;68.12
19795;BME280;10057;59.402;17.866;2022-08-25T03:40:51;102432.63;;;13.39;68.42
19795;BME280;10057;59.402;17.866;2022-08-25T03:43:18;102423.81;;;13.35;67.99
19795;BME280;10057;59.402;17.866;2022-08-25T03:45:46;102430.00;;;13.36;68.50
19795;BME280;10057;59.402;17.866;2022-08-25T03:48:15;102434.53;;;13.34;68.32
19795;BME280;10057;59.402;17.866;2022-08-25T03:50:49;102429.28;;;13.29;68.56
19795;BME280;10057;59.402;17.866;2022-08-25T03:53:18;102418.72;;;13.24;68.60
19795;BME280;10057;59.402;17.866;2022-08-25T03:55:45;102425.78;;;13.27;68.40
19795;BME280;10057;59.402;17.866;2022-08-25T03:58:13;102429.22;;;13.32;68.58
19795;BME280;10057;59.402;17.866;2022-08-25T04:00:40;102430.88;;;13.36;68.38
19795;BME280;10057;59.402;17.866;2022-08-25T04:03:07;102431.69;;;13.40;68.55
19795;BME280;10057;59.402;17.866;2022-08-25T04:05:34;102433.47;;;13.41;68.31
19795;BME280;10057;59.402;17.866;2022-08-25T04:08:01;102432.56;;;13.42;68.54
19795;BME280;10057;59.402;17.866;2022-08-25T04:10:29;102428.28;;;13.35;68.12
19795;BME280;10057;59.402;17.866;2022-08-25T04:12:57;102429.31;;;13.27;68.41
19795;BME280;10057;59.402;17.866;2022-08-25T04:15:24;102436.44;;;13.27;68.76
19795;BME280;10057;59.402;17.866;2022-08-25T04:17:56;102434.59;;;13.31;68.97
19795;BME280;10057;59.402;17.866;2022-08-25T04:20:24;102426.47;;;13.35;68.68
19795;BME280;10057;59.402;17.866;2022-08-25T04:22:51;102429.03;;;13.40;68.64
19795;BME280;10057;59.402;17.866;2022-08-25T04:25:18;102436.00;;;13.47;68.60
19795;BME280;10057;59.402;17.866;2022-08-25T04:27:45;102432.31;;;13.52;68.61
19795;BME280;10057;59.402;17.866;2022-08-25T04:30:12;102425.97;;;13.57;68.77
19795;BME280;10057;59.402;17.866;2022-08-25T04:32:40;102425.91;;;13.60;68.45
19795;BME280;10057;59.402;17.866;2022-08-25T04:35:07;102425.03;;;13.61;68.38
19795;BME280;10057;59.402;17.866;2022-08-25T04:37:34;102432.97;;;13.62;68.71
19795;BME280;10057;59.402;17.866;2022-08-25T04:40:01;102433.84;;;13.64;69.05
19795;BME280;10057;59.402;17.866;2022-08-25T04:42:28;102432.91;;;13.65;68.99
19795;BME280;10057;59.402;17.866;2022-08-25T04:44:54;102433.72;;;13.67;69.04
19795;BME280;10057;59.402;17.866;2022-08-25T04:47:21;102429.25;;;13.69;68.96
19795;BME280;10057;59.402;17.866;2022-08-25T04:49:48;102436.31;;;13.72;69.17
19795;BME280;10057;59.402;17.866;2022-08-25T04:52:15;102429.13;;;13.75;69.38
19795;BME280;10057;59.402;17.866;2022-08-25T04:54:42;102429.03;;;13.79;68.93
19795;BME280;10057;59.402;17.866;2022-08-25T04:57:10;102431.66;;;13.80;69.10
19795;BME280;10057;59.402;17.866;2022-08-25T04:59:37;102432.44;;;13.85;69.18
19795;BME280;10057;59.402;17.866;2022-08-25T05:02:04;102432.38;;;13.87;69.58
19795;BME280;10057;59.402;17.866;2022-08-25T05:04:33;102435.84;;;13.92;69.63
19795;BME280;10057;59.402;17.866;2022-08-25T05:07:02;102425.97;;;13.95;69.46
19795;BME280;10057;59.402;17.866;2022-08-25T05:09:29;102432.09;;;13.99;69.84
19795;BME280;10057;59.402;17.866;2022-08-25T05:11:59;102432.03;;;14.02;69.52
19795;BME280;10057;59.402;17.866;2022-08-25T05:14:27;102433.69;;;14.06;69.80
19795;BME280;10057;59.402;17.866;2022-08-25T05:16:55;102430.97;;;14.09;69.98
19795;BME280;10057;59.402;17.866;2022-08-25T05:19:22;102432.72;;;14.10;69.90
19795;BME280;10057;59.402;17.866;2022-08-25T05:21:52;102430.88;;;14.12;69.81
19795;BME280;10057;59.402;17.866;2022-08-25T05:24:20;102432.56;;;14.15;70.04
19795;BME280;10057;59.402;17.866;2022-08-25T05:26:47;102434.22;;;14.20;70.08
19795;BME280;10057;59.402;17.866;2022-08-25T05:29:14;102431.41;;;14.27;70.22
19795;BME280;10057;59.402;17.866;2022-08-25T05:31:41;102433.78;;;14.37;70.07
19795;BME280;10057;59.402;17.866;2022-08-25T05:34:15;102432.75;;;14.43;70.30
19795;BME280;10057;59.402;17.866;2022-08-25T05:36:47;102427.22;;;14.49;70.11
19795;BME280;10057;59.402;17.866;2022-08-25T05:39:14;102427.16;;;14.54;70.17
19795;BME280;10057;59.402;17.866;2022-08-25T05:41:41;102433.22;;;14.60;70.19
19795;BME280;10057;59.402;17.866;2022-08-25T05:44:10;102435.81;;;14.63;70.33
19795;BME280;10057;59.402;17.866;2022-08-25T05:46:38;102440.00;;;14.72;70.39
19795;BME280;10057;59.402;17.866;2022-08-25T05:49:04;102445.22;;;14.77;70.32
19795;BME280;10057;59.402;17.866;2022-08-25T05:51:31;102441.50;;;14.82;70.31
19795;BME280;10057;59.402;17.866;2022-08-25T05:53:59;102438.69;;;14.87;70.27
19795;BME280;10057;59.402;17.866;2022-08-25T05:56:26;102435.81;;;14.95;70.43
19795;BME280;10057;59.402;17.866;2022-08-25T05:58:52;102436.53;;;15.01;70.28
19795;BME280;10057;59.402;17.866;2022-08-25T06:01:22;102443.34;;;15.11;70.38
19795;BME280;10057;59.402;17.866;2022-08-25T06:04:10;102443.13;;;15.19;70.28
19795;BME280;10057;59.402;17.866;2022-08-25T06:06:38;102434.84;;;15.27;70.39
19795;BME280;10057;59.402;17.866;2022-08-25T06:09:05;102442.63;;;15.36;70.24
19795;BME280;10057;59.402;17.866;2022-08-25T06:11:38;102442.31;;;15.45;70.44
19795;BME280;10057;59.402;17.866;2022-08-25T06:14:07;102442.03;;;15.54;70.27
19795;BME280;10057;59.402;17.866;2022-08-25T06:16:35;102440.88;;;15.63;70.40
19795;BME280;10057;59.402;17.866;2022-08-25T06:19:02;102451.28;;;15.74;70.50
19795;BME280;10057;59.402;17.866;2022-08-25T06:21:29;102442.06;;;15.82;70.47
19795;BME280;10057;59.402;17.866;2022-08-25T06:23:56;102452.31;;;15.96;70.36
19795;BME280;10057;59.402;17.866;2022-08-25T06:26:23;102444.75;;;16.09;70.51
19795;BME280;10057;59.402;17.866;2022-08-25T06:28:51;102448.84;;;16.21;70.45
19795;BME280;10057;59.402;17.866;2022-08-25T06:31:19;102450.28;;;16.31;70.35
19795;BME280;10057;59.402;17.866;2022-08-25T06:33:48;102450.88;;;16.39;70.29
19795;BME280;10057;59.402;17.866;2022-08-25T06:36:15;102451.47;;;16.47;70.09
19795;BME280;10057;59.402;17.866;2022-08-25T06:38:42;102449.44;;;16.55;70.10
19795;BME280;10057;59.402;17.866;2022-08-25T06:41:09;102455.28;;;16.67;70.00
19795;BME280;10057;59.402;17.866;2022-08-25T06:43:37;102455.00;;;16.76;69.98
19795;BME280;10057;59.402;17.866;2022-08-25T06:46:14;102447.50;;;16.86;69.73
19795;BME280;10057;59.402;17.866;2022-08-25T06:48:41;102448.94;;;16.94;69.53
19795;BME280;10057;59.402;17.866;2022-08-25T06:51:11;102446.84;;;17.02;69.62
19795;BME280;10057;59.402;17.866;2022-08-25T06:53:40;102448.31;;;17.11;69.22
19795;BME280;10057;59.402;17.866;2022-08-25T06:56:08;102448.84;;;17.21;69.45
19795;BME280;10057;59.402;17.866;2022-08-25T06:58:35;102450.34;;;17.28;69.44
19795;BME280;10057;59.402;17.866;2022-08-25T07:01:13;102454.56;;;17.35;69.04
19795;BME280;10057;59.402;17.866;2022-08-25T07:03:45;102454.31;;;17.41;69.10
19795;BME280;10057;59.402;17.866;2022-08-25T07:06:14;102453.97;;;17.50;68.98
19795;BME280;10057;59.402;17.866;2022-08-25T07:08:45;102457.22;;;17.59;68.60
19795;BME280;10057;59.402;17.866;2022-08-25T07:11:12;102455.09;;;17.67;68.40
19795;BME280;10057;59.402;17.866;2022-08-25T07:13:43;102454.81;;;17.74;68.15
19795;BME280;10057;59.402;17.866;2022-08-25T07:16:10;102455.47;;;17.81;68.11
19795;BME280;10057;59.402;17.866;2022-08-25T07:18:37;102455.06;;;17.90;67.81
19795;BME280;10057;59.402;17.866;2022-08-25T07:21:16;102463.69;;;17.98;67.48
19795;BME280;10057;59.402;17.866;2022-08-25T07:23:48;102450.81;;;18.07;67.57
19795;BME280;10057;59.402;17.866;2022-08-25T07:26:21;102455.88;;;18.14;67.22
19795;BME280;10057;59.402;17.866;2022-08-25T07:29:07;102470.78;;;18.21;67.09
19795;BME280;10057;59.402;17.866;2022-08-25T07:31:34;102472.34;;;18.27;66.97
19795;BME280;10057;59.402;17.866;2022-08-25T07:34:06;102475.69;;;18.32;66.67
19795;BME280;10057;59.402;17.866;2022-08-25T07:36:52;102471.75;;;18.41;66.58
19795;BME280;10057;59.402;17.866;2022-08-25T07:39:21;102470.50;;;18.50;66.36
19795;BME280;10057;59.402;17.866;2022-08-25T07:41:48;102481.78;;;18.58;66.17
19795;BME280;10057;59.402;17.866;2022-08-25T07:44:19;102473.44;;;18.64;65.66
19795;BME280;10057;59.402;17.866;2022-08-25T07:46:47;102462.44;;;18.70;65.56
19795;BME280;10057;59.402;17.866;2022-08-25T07:49:17;102463.94;;;18.77;65.24
19795;BME280;10057;59.402;17.866;2022-08-25T07:51:49;102461.78;;;18.85;65.17
19795;BME280;10057;59.402;17.866;2022-08-25T07:54:33;102463.09;;;18.96;65.24
19795;BME280;10057;59.402;17.866;2022-08-25T07:57:05;102460.78;;;19.07;64.93
19795;BME280;10057;59.402;17.866;2022-08-25T07:59:32;102462.13;;;19.17;64.37
19795;BME280;10057;59.402;17.866;2022-08-25T08:02:10;102454.44;;;19.28;64.08
19795;BME280;10057;59.402;17.866;2022-08-25T08:04:47;102455.66;;;19.40;63.78
19795;BME280;10057;59.402;17.866;2022-08-25T08:07:21;102456.88;;;19.52;63.63
19795;BME280;10057;59.402;17.866;2022-08-25T08:09:49;102461.63;;;19.65;63.13
19795;BME280;10057;59.402;17.866;2022-08-25T08:12:36;102464.47;;;19.81;62.85
19795;BME280;10057;59.402;17.866;2022-08-25T08:15:03;102470.72;;;20.01;62.62
19795;BME280;10057;59.402;17.866;2022-08-25T08:17:36;102460.22;;;20.31;62.96
19795;BME280;10057;59.402;17.866;2022-08-25T08:20:05;102469.53;;;20.93;63.96
19795;BME280;10057;59.402;17.866;2022-08-25T08:22:36;102458.88;;;21.72;62.53
19795;BME280;10057;59.402;17.866;2022-08-25T08:25:04;102465.97;;;22.51;62.21
19795;BME280;10057;59.402;17.866;2022-08-25T08:27:36;102468.22;;;23.32;60.18
19795;BME280;10057;59.402;17.866;2022-08-25T08:30:04;102468.53;;;23.83;58.50
19795;BME280;10057;59.402;17.866;2022-08-25T08:32:31;102481.28;;;24.35;56.83
19795;BME280;10057;59.402;17.866;2022-08-25T08:35:17;102474.13;;;24.99;56.03
19795;BME280;10057;59.402;17.866;2022-08-25T08:37:44;102464.53;;;25.69;54.88
19795;BME280;10057;59.402;17.866;2022-08-25T08:40:14;102462.06;;;26.38;52.37
19795;BME280;10057;59.402;17.866;2022-08-25T08:42:49;102458.34;;;26.85;50.83
19795;BME280;10057;59.402;17.866;2022-08-25T08:45:39;102454.19;;;27.26;48.83
19795;BME280;10057;59.402;17.866;2022-08-25T08:51:21;102461.84;;;27.44;46.27
19795;BME280;10057;59.402;17.866;2022-08-25T08:53:55;102452.41;;;27.03;45.62
19795;BME280;10057;59.402;17.866;2022-08-25T08:56:25;102459.38;;;26.49;45.94
19795;BME280;10057;59.402;17.866;2022-08-25T08:59:12;102456.53;;;25.91;46.39
19795;BME280;10057;59.402;17.866;2022-08-25T09:01:53;102450.56;;;25.49;46.51
19795;BME280;10057;59.402;17.866;2022-08-25T09:04:42;102457.38;;;25.18;46.09
19795;BME280;10057;59.402;17.866;2022-08-25T09:07:16;102456.94;;;24.99;46.11
19795;BME280;10057;59.402;17.866;2022-08-25T09:09:46;102452.94;;;24.79;46.18
19795;BME280;10057;59.402;17.866;2022-08-25T09:18:08;102447.63;;;25.52;46.88
19795;BME280;10057;59.402;17.866;2022-08-25T09:31:23;102443.63;;;29.65;42.43
19795;BME280;10057;59.402;17.866;2022-08-25T09:33:57;102436.16;;;30.06;41.57
19795;BME280;10057;59.402;17.866;2022-08-25T09:36:25;102433.28;;;30.36;40.47
19795;BME280;10057;59.402;17.866;2022-08-25T09:38:52;102432.16;;;30.19;39.69
19795;BME280;10057;59.402;17.866;2022-08-25T09:41:45;102422.47;;;30.35;39.98
19795;BME280;10057;59.402;17.866;2022-08-25T09:44:18;102424.31;;;30.54;38.98
19795;BME280;10057;59.402;17.866;2022-08-25T09:49:21;102434.66;;;30.60;38.11
19795;BME280;10057;59.402;17.866;2022-08-25T09:52:36;102421.72;;;30.42;37.94
19795;BME280;10057;59.402;17.866;2022-08-25T09:57:46;102408.84;;;29.46;36.54
19795;BME280;10057;59.402;17.866;2022-08-25T10:00:32;102407.31;;;28.82;37.57
19795;BME280;10057;59.402;17.866;2022-08-25T10:05:33;102410.13;;;28.08;37.91
19795;BME280;10057;59.402;17.866;2022-08-25T10:08:12;102411.72;;;27.78;38.49
19795;BME280;10057;59.402;17.866;2022-08-25T10:10:45;102402.41;;;27.37;38.04
19795;BME280;10057;59.402;17.866;2022-08-25T10:13:20;102401.53;;;27.03;38.11
19795;BME280;10057;59.402;17.866;2022-08-25T10:16:07;102395.22;;;26.69;38.24
19795;BME280;10057;59.402;17.866;2022-08-25T10:22:03;102394.00;;;25.91;39.44
19795;BME280;10057;59.402;17.866;2022-08-25T10:24:32;102388.00;;;25.75;39.32
19795;BME280;10057;59.402;17.866;2022-08-25T10:27:17;102391.53;;;25.64;39.59
19795;BME280;10057;59.402;17.866;2022-08-25T10:44:31;102375.81;;;25.07;41.81
19795;BME280;10057;59.402;17.866;2022-08-25T10:49:45;102360.72;;;25.16;40.95
19795;BME280;10057;59.402;17.866;2022-08-25T10:52:25;102360.31;;;24.96;40.14
19795;BME280;10057;59.402;17.866;2022-08-25T10:55:12;102355.47;;;24.63;40.30
19795;BME280;10057;59.402;17.866;2022-08-25T10:58:09;102350.03;;;24.50;41.17
19795;BME280;10057;59.402;17.866;2022-08-25T11:00:58;102353.09;;;24.58;41.14
19795;BME280;10057;59.402;17.866;2022-08-25T11:06:15;102347.19;;;24.90;41.29
19795;BME280;10057;59.402;17.866;2022-08-25T11:08:53;102351.47;;;25.05;41.50
19795;BME280;10057;59.402;17.866;2022-08-25T11:11:32;102351.59;;;25.17;40.84
19795;BME280;10057;59.402;17.866;2022-08-25T11:14:11;102356.25;;;25.27;41.27
19795;BME280;10057;59.402;17.866;2022-08-25T11:16:51;102359.13;;;25.37;41.44
19795;BME280;10057;59.402;17.866;2022-08-25T11:19:31;102353.75;;;25.48;40.82
19795;BME280;10057;59.402;17.866;2022-08-25T11:24:41;102350.22;;;25.59;40.80
19795;BME280;10057;59.402;17.866;2022-08-25T11:27:17;102353.59;;;25.63;40.64
19795;BME280;10057;59.402;17.866;2022-08-25T11:30:05;102348.91;;;25.65;40.23
19795;BME280;10057;59.402;17.866;2022-08-25T11:32:35;102350.63;;;25.66;40.03
19795;BME280;10057;59.402;17.866;2022-08-25T11:35:06;102345.19;;;25.66;40.08
19795;BME280;10057;59.402;17.866;2022-08-25T11:40:48;102348.38;;;25.36;40.14
19795;BME280;10057;59.402;17.866;2022-08-25T11:46:24;102337.19;;;25.40;40.12
19795;BME280;10057;59.402;17.866;2022-08-25T11:51:48;102325.44;;;25.40;39.96
19795;BME280;10057;59.402;17.866;2022-08-25T11:54:34;102318.31;;;25.50;39.67
19795;BME280;10057;59.402;17.866;2022-08-25T11:57:05;102310.09;;;25.63;39.89
19795;BME280;10057;59.402;17.866;2022-08-25T12:02:46;102307.06;;;26.03;39.87
19795;BME280;10057;59.402;17.866;2022-08-25T12:10:23;102294.72;;;26.32;38.61
19795;BME280;10057;59.402;17.866;2022-08-25T12:13:00;102297.09;;;26.37;38.48
19795;BME280;10057;59.402;17.866;2022-08-25T12:18:50;102285.13;;;26.51;38.15
19795;BME280;10057;59.402;17.866;2022-08-25T12:26:44;102267.41;;;26.45;37.73
19795;BME280;10057;59.402;17.866;2022-08-25T12:37:29;102271.91;;;26.57;37.24
19795;BME280;10057;59.402;17.866;2022-08-25T12:40:01;102264.47;;;26.59;36.93
19795;BME280;10057;59.402;17.866;2022-08-25T12:42:33;102255.94;;;26.64;37.22
19795;BME280;10057;59.402;17.866;2022-08-25T12:45:31;102247.75;;;26.75;37.25
19795;BME280;10057;59.402;17.866;2022-08-25T12:51:02;102242.38;;;26.96;36.53
19795;BME280;10057;59.402;17.866;2022-08-25T12:53:58;102242.28;;;26.98;36.69
19795;BME280;10057;59.402;17.866;2022-08-25T12:56:34;102233.34;;;26.96;36.46
19795;BME280;10057;59.402;17.866;2022-08-25T12:59:16;102234.34;;;26.94;36.59
19795;BME280;10057;59.402;17.866;2022-08-25T13:08:21;102234.28;;;27.28;35.74
19795;BME280;10057;59.402;17.866;2022-08-25T13:13:36;102232.09;;;27.43;35.30
19795;BME280;10057;59.402;17.866;2022-08-25T13:16:08;102231.22;;;27.43;35.45
19795;BME280;10057;59.402;17.866;2022-08-25T13:18:40;102235.22;;;27.38;35.45
19795;BME280;10057;59.402;17.866;2022-08-25T13:23:40;102236.25;;;27.26;35.14
19795;BME280;10057;59.402;17.866;2022-08-25T13:26:12;102228.13;;;27.15;34.89
19795;BME280;10057;59.402;17.866;2022-08-25T13:28:41;102228.00;;;27.05;34.79
19795;BME280;10057;59.402;17.866;2022-08-25T13:31:19;102224.19;;;26.97;35.19
19795;BME280;10057;59.402;17.866;2022-08-25T13:34:07;102218.63;;;26.87;34.77
19795;BME280;10057;59.402;17.866;2022-08-25T13:36:46;102222.75;;;26.70;35.01
19795;BME280;10057;59.402;17.866;2022-08-25T13:39:33;102218.69;;;26.64;35.47
19795;BME280;10057;59.402;17.866;2022-08-25T13:42:20;102227.72;;;26.65;35.36
19795;BME280;10057;59.402;17.866;2022-08-25T13:44:54;102219.81;;;26.62;35.42
19795;BME280;10057;59.402;17.866;2022-08-25T13:47:33;102219.19;;;26.58;35.43
19795;BME280;10057;59.402;17.866;2022-08-25T13:50:20;102222.78;;;26.59;35.56
19795;BME280;10057;59.402;17.866;2022-08-25T13:52:55;102224.88;;;26.55;35.22
19795;BME280;10057;59.402;17.866;2022-08-25T13:55:25;102219.94;;;26.49;35.53
19795;BME280;10057;59.402;17.866;2022-08-25T13:57:56;102216.56;;;26.45;35.24
19795;BME280;10057;59.402;17.866;2022-08-25T14:00:47;102212.28;;;26.43;35.17
19795;BME280;10057;59.402;17.866;2022-08-25T14:03:34;102208.03;;;26.39;34.84
19795;BME280;10057;59.402;17.866;2022-08-25T14:06:06;102208.56;;;26.21;34.70
19795;BME280;10057;59.402;17.866;2022-08-25T14:08:37;102206.06;;;26.07;35.09
19795;BME280;10057;59.402;17.866;2022-08-25T14:11:26;102199.03;;;26.05;35.35
19795;BME280;10057;59.402;17.866;2022-08-25T14:14:07;102215.00;;;26.09;35.67
19795;BME280;10057;59.402;17.866;2022-08-25T14:16:59;102204.13;;;26.09;35.91
19795;BME280;10057;59.402;17.866;2022-08-25T14:19:47;102206.84;;;26.09;35.67
19795;BME280;10057;59.402;17.866;2022-08-25T14:22:14;102209.41;;;26.11;35.89
19795;BME280;10057;59.402;17.866;2022-08-25T14:24:41;102199.41;;;26.11;35.89
19795;BME280;10057;59.402;17.866;2022-08-25T14:27:09;102196.34;;;26.16;36.20
19795;BME280;10057;59.402;17.866;2022-08-25T14:29:37;102193.84;;;26.24;36.02
19795;BME280;10057;59.402;17.866;2022-08-25T14:32:08;102188.63;;;26.32;35.82
19795;BME280;10057;59.402;17.866;2022-08-25T14:34:39;102179.97;;;26.38;35.71
19795;BME280;10057;59.402;17.866;2022-08-25T14:37:16;102178.16;;;26.50;35.43
19795;BME280;10057;59.402;17.866;2022-08-25T14:39:45;102174.66;;;26.70;35.37
19795;BME280;10057;59.402;17.866;2022-08-25T14:42:13;102177.19;;;26.83;35.41
19795;BME280;10057;59.402;17.866;2022-08-25T14:44:39;102171.97;;;26.91;35.10
19795;BME280;10057;59.402;17.866;2022-08-25T14:47:06;102167.84;;;26.97;34.80
19795;BME280;10057;59.402;17.866;2022-08-25T14:49:39;102165.41;;;26.94;34.84